sensor_id;sensor_type;location;lat;lon;timestamp;P1;durP1;ratioP1;P2;durP2;ratioP2
12511;SDS011;6321;53.798;10.382;2022-07-10T00:02:16;3.33;;;2.07;;
12511;SDS011;6321;53.798;10.382;2022-07-10T00:04:42;5.90;;;1.50;;
12511;SDS011;6321;53.798;10.382;2022-07-10T00:07:08;6.70;;;2.10;;
12511;SDS011;6321;53.798;10.382;2022-07-10T00:09:33;3.77;;;1.57;;
12511;SDS011;6321;53.798;10.382;2022-07-10T00:11:59;3.47;;;1.27;;
12511;SDS011;6321;53.798;10.382;2022-07-10T00:14:25;6.87;;;1.67;;
12511;SDS011;6321;53.798;10.382;2022-07-10T00:16:51;4.30;;;1.50;;
12511;SDS011;6321;53.798;10.382;2022-07-10T00:19:17;6.53;;;1.60;;
12511;SDS011;6321;53.798;10.382;2022-07-10T00:21:43;3.97;;;1.80;;
12511;SDS011;6321;53.798;10.382;2022-07-10T00:24:09;4.73;;;1.70;;
12511;SDS011;6321;53.798;10.382;2022-07-10T00:26:35;4.40;;;1.40;;
12511;SDS011;6321;53.798;10.382;2022-07-10T00:29:01;3.80;;;1.40;;
12511;SDS011;6321;53.798;10.382;2022-07-10T00:31:27;6.37;;;1.57;;
12511;SDS011;6321;53.798;10.382;2022-07-10T00:33:53;3.97;;;1.87;;
12511;SDS011;6321;53.798;10.382;2022-07-10T00:36:19;3.30;;;1.80;;
12511;SDS011;6321;53.798;10.382;2022-07-10T00:38:45;4.83;;;1.37;;
12511;SDS011;6321;53.798;10.382;2022-07-10T00:41:11;5.90;;;1.50;;
12511;SDS011;6321;53.798;10.382;2022-07-10T00:46:18;3.63;;;1.50;;
12511;SDS011;6321;53.798;10.382;2022-07-10T00:48:48;6.63;;;1.30;;
12511;SDS011;6321;53.798;10.382;2022-07-10T00:51:15;3.23;;;1.20;;
12511;SDS011;6321;53.798;10.382;2022-07-10T00:53:42;5.10;;;1.23;;
12511;SDS011;6321;53.798;10.382;2022-07-10T00:56:10;7.77;;;1.43;;
12511;SDS011;6321;53.798;10.382;2022-07-10T00:58:37;6.27;;;1.47;;
12511;SDS011;6321;53.798;10.382;2022-07-10T01:01:04;6.53;;;1.73;;
12511;SDS011;6321;53.798;10.382;2022-07-10T01:03:30;3.83;;;1.30;;
12511;SDS011;6321;53.798;10.382;2022-07-10T01:05:57;5.50;;;1.67;;
12511;SDS011;6321;53.798;10.382;2022-07-10T01:08:23;3.40;;;1.17;;
12511;SDS011;6321;53.798;10.382;2022-07-10T01:10:49;6.43;;;1.50;;
12511;SDS011;6321;53.798;10.382;2022-07-10T01:13:15;4.63;;;1.83;;
12511;SDS011;6321;53.798;10.382;2022-07-10T01:15:41;3.70;;;1.60;;
12511;SDS011;6321;53.798;10.382;2022-07-10T01:18:07;2.33;;;1.20;;
12511;SDS011;6321;53.798;10.382;2022-07-10T01:20:34;4.83;;;1.50;;
12511;SDS011;6321;53.798;10.382;2022-07-10T01:23:00;2.93;;;1.60;;
12511;SDS011;6321;53.798;10.382;2022-07-10T01:25:26;3.53;;;1.67;;
12511;SDS011;6321;53.798;10.382;2022-07-10T01:27:52;4.90;;;1.63;;
12511;SDS011;6321;53.798;10.382;2022-07-10T01:30:19;4.57;;;2.00;;
12511;SDS011;6321;53.798;10.382;2022-07-10T01:32:45;4.40;;;1.40;;
12511;SDS011;6321;53.798;10.382;2022-07-10T01:35:12;8.00;;;1.90;;
12511;SDS011;6321;53.798;10.382;2022-07-10T01:37:38;5.70;;;2.00;;
12511;SDS011;6321;53.798;10.382;2022-07-10T01:40:07;7.43;;;2.00;;
12511;SDS011;6321;53.798;10.382;2022-07-10T01:42:33;4.20;;;2.07;;
12511;SDS011;6321;53.798;10.382;2022-07-10T01:44:59;3.90;;;1.53;;
12511;SDS011;6321;53.798;10.382;2022-07-10T01:47:24;6.17;;;1.33;;
12511;SDS011;6321;53.798;10.382;2022-07-10T01:49:52;5.13;;;2.03;;
12511;SDS011;6321;53.798;10.382;2022-07-10T01:52:18;9.13;;;1.93;;
12511;SDS011;6321;53.798;10.382;2022-07-10T01:54:44;8.10;;;1.70;;
12511;SDS011;6321;53.798;10.382;2022-07-10T01:57:10;4.70;;;1.77;;
12511;SDS011;6321;53.798;10.382;2022-07-10T01:59:36;3.27;;;1.70;;
12511;SDS011;6321;53.798;10.382;2022-07-10T02:02:01;7.23;;;2.27;;
12511;SDS011;6321;53.798;10.382;2022-07-10T02:04:27;3.97;;;1.57;;
12511;SDS011;6321;53.798;10.382;2022-07-10T02:07:11;4.60;;;1.60;;
12511;SDS011;6321;53.798;10.382;2022-07-10T02:09:40;4.03;;;1.50;;
12511;SDS011;6321;53.798;10.382;2022-07-10T02:12:10;3.87;;;1.83;;
12511;SDS011;6321;53.798;10.382;2022-07-10T02:14:38;6.17;;;2.13;;
12511;SDS011;6321;53.798;10.382;2022-07-10T02:17:04;4.63;;;1.97;;
12511;SDS011;6321;53.798;10.382;2022-07-10T02:19:31;5.40;;;2.30;;
12511;SDS011;6321;53.798;10.382;2022-07-10T02:21:58;5.27;;;1.93;;
12511;SDS011;6321;53.798;10.382;2022-07-10T02:24:25;8.63;;;2.40;;
12511;SDS011;6321;53.798;10.382;2022-07-10T02:26:53;6.90;;;2.03;;
12511;SDS011;6321;53.798;10.382;2022-07-10T02:29:21;5.77;;;2.03;;
12511;SDS011;6321;53.798;10.382;2022-07-10T02:31:49;2.23;;;1.73;;
12511;SDS011;6321;53.798;10.382;2022-07-10T02:34:16;9.07;;;2.83;;
12511;SDS011;6321;53.798;10.382;2022-07-10T02:36:43;10.93;;;2.53;;
12511;SDS011;6321;53.798;10.382;2022-07-10T02:39:09;7.90;;;2.20;;
12511;SDS011;6321;53.798;10.382;2022-07-10T02:41:34;7.97;;;3.10;;
12511;SDS011;6321;53.798;10.382;2022-07-10T02:44:03;10.17;;;2.27;;
12511;SDS011;6321;53.798;10.382;2022-07-10T02:46:29;4.50;;;1.97;;
12511;SDS011;6321;53.798;10.382;2022-07-10T02:48:54;9.70;;;2.67;;
12511;SDS011;6321;53.798;10.382;2022-07-10T02:51:21;9.83;;;2.67;;
12511;SDS011;6321;53.798;10.382;2022-07-10T02:53:47;10.27;;;2.43;;
12511;SDS011;6321;53.798;10.382;2022-07-10T02:56:12;11.50;;;3.10;;
12511;SDS011;6321;53.798;10.382;2022-07-10T02:58:38;5.90;;;2.57;;
12511;SDS011;6321;53.798;10.382;2022-07-10T03:01:04;10.47;;;2.30;;
12511;SDS011;6321;53.798;10.382;2022-07-10T03:03:33;8.60;;;2.77;;
12511;SDS011;6321;53.798;10.382;2022-07-10T03:05:59;7.77;;;2.63;;
12511;SDS011;6321;53.798;10.382;2022-07-10T03:08:24;12.27;;;2.70;;
12511;SDS011;6321;53.798;10.382;2022-07-10T03:10:49;8.23;;;3.00;;
12511;SDS011;6321;53.798;10.382;2022-07-10T03:13:15;12.03;;;3.00;;
12511;SDS011;6321;53.798;10.382;2022-07-10T03:15:45;10.17;;;3.07;;
12511;SDS011;6321;53.798;10.382;2022-07-10T03:18:10;7.57;;;2.60;;
12511;SDS011;6321;53.798;10.382;2022-07-10T03:20:36;14.63;;;3.77;;
12511;SDS011;6321;53.798;10.382;2022-07-10T03:23:01;10.30;;;3.23;;
12511;SDS011;6321;53.798;10.382;2022-07-10T03:25:27;9.90;;;3.50;;
12511;SDS011;6321;53.798;10.382;2022-07-10T03:27:52;11.43;;;3.67;;
12511;SDS011;6321;53.798;10.382;2022-07-10T03:30:17;12.87;;;3.13;;
12511;SDS011;6321;53.798;10.382;2022-07-10T03:32:44;8.43;;;2.70;;
12511;SDS011;6321;53.798;10.382;2022-07-10T03:35:10;8.13;;;2.80;;
12511;SDS011;6321;53.798;10.382;2022-07-10T03:37:35;18.47;;;4.53;;
12511;SDS011;6321;53.798;10.382;2022-07-10T03:40:01;9.23;;;3.27;;
12511;SDS011;6321;53.798;10.382;2022-07-10T03:42:27;11.27;;;3.53;;
12511;SDS011;6321;53.798;10.382;2022-07-10T03:44:52;12.63;;;3.20;;
12511;SDS011;6321;53.798;10.382;2022-07-10T03:47:18;9.40;;;2.70;;
12511;SDS011;6321;53.798;10.382;2022-07-10T03:49:43;10.20;;;3.40;;
12511;SDS011;6321;53.798;10.382;2022-07-10T03:52:08;11.43;;;3.83;;
12511;SDS011;6321;53.798;10.382;2022-07-10T03:54:34;10.17;;;3.10;;
12511;SDS011;6321;53.798;10.382;2022-07-10T03:57:00;10.30;;;3.63;;
12511;SDS011;6321;53.798;10.382;2022-07-10T03:59:44;10.00;;;2.70;;
12511;SDS011;6321;53.798;10.382;2022-07-10T04:02:10;11.10;;;3.03;;
12511;SDS011;6321;53.798;10.382;2022-07-10T04:04:35;9.40;;;2.30;;
12511;SDS011;6321;53.798;10.382;2022-07-10T04:07:01;12.23;;;3.23;;
12511;SDS011;6321;53.798;10.382;2022-07-10T04:09:28;11.97;;;3.97;;
12511;SDS011;6321;53.798;10.382;2022-07-10T04:11:54;11.17;;;2.80;;
12511;SDS011;6321;53.798;10.382;2022-07-10T04:14:19;7.70;;;3.33;;
12511;SDS011;6321;53.798;10.382;2022-07-10T04:16:45;7.97;;;3.30;;
12511;SDS011;6321;53.798;10.382;2022-07-10T04:19:10;11.10;;;3.77;;
12511;SDS011;6321;53.798;10.382;2022-07-10T04:21:36;10.13;;;3.37;;
12511;SDS011;6321;53.798;10.382;2022-07-10T04:24:02;9.67;;;3.63;;
12511;SDS011;6321;53.798;10.382;2022-07-10T04:26:28;12.80;;;3.67;;
12511;SDS011;6321;53.798;10.382;2022-07-10T04:28:53;10.63;;;3.40;;
12511;SDS011;6321;53.798;10.382;2022-07-10T04:31:19;10.67;;;3.83;;
12511;SDS011;6321;53.798;10.382;2022-07-10T04:33:44;11.20;;;3.70;;
12511;SDS011;6321;53.798;10.382;2022-07-10T04:36:10;12.97;;;3.50;;
12511;SDS011;6321;53.798;10.382;2022-07-10T04:38:35;9.90;;;3.17;;
12511;SDS011;6321;53.798;10.382;2022-07-10T04:41:00;10.10;;;2.93;;
12511;SDS011;6321;53.798;10.382;2022-07-10T04:43:26;12.03;;;3.37;;
12511;SDS011;6321;53.798;10.382;2022-07-10T04:45:51;12.33;;;3.67;;
12511;SDS011;6321;53.798;10.382;2022-07-10T04:48:17;10.30;;;3.37;;
12511;SDS011;6321;53.798;10.382;2022-07-10T04:50:43;17.07;;;3.27;;
12511;SDS011;6321;53.798;10.382;2022-07-10T04:53:08;9.83;;;3.50;;
12511;SDS011;6321;53.798;10.382;2022-07-10T04:55:33;8.63;;;3.00;;
12511;SDS011;6321;53.798;10.382;2022-07-10T04:57:59;11.47;;;3.73;;
12511;SDS011;6321;53.798;10.382;2022-07-10T05:00:24;11.07;;;3.43;;
12511;SDS011;6321;53.798;10.382;2022-07-10T05:02:50;11.13;;;3.77;;
12511;SDS011;6321;53.798;10.382;2022-07-10T05:05:15;8.83;;;3.10;;
12511;SDS011;6321;53.798;10.382;2022-07-10T05:07:41;9.60;;;3.07;;
12511;SDS011;6321;53.798;10.382;2022-07-10T05:10:07;9.47;;;3.27;;
12511;SDS011;6321;53.798;10.382;2022-07-10T05:12:33;9.13;;;2.57;;
12511;SDS011;6321;53.798;10.382;2022-07-10T05:14:58;13.97;;;3.50;;
12511;SDS011;6321;53.798;10.382;2022-07-10T05:17:24;13.93;;;3.03;;
12511;SDS011;6321;53.798;10.382;2022-07-10T05:19:51;14.40;;;3.93;;
12511;SDS011;6321;53.798;10.382;2022-07-10T05:22:18;11.37;;;3.07;;
12511;SDS011;6321;53.798;10.382;2022-07-10T05:24:45;9.53;;;2.80;;
12511;SDS011;6321;53.798;10.382;2022-07-10T05:27:10;11.97;;;3.03;;
12511;SDS011;6321;53.798;10.382;2022-07-10T05:29:36;11.67;;;3.30;;
12511;SDS011;6321;53.798;10.382;2022-07-10T05:32:02;11.53;;;3.10;;
12511;SDS011;6321;53.798;10.382;2022-07-10T05:34:27;13.57;;;3.07;;
12511;SDS011;6321;53.798;10.382;2022-07-10T05:36:53;12.03;;;2.97;;
12511;SDS011;6321;53.798;10.382;2022-07-10T05:39:18;12.87;;;3.40;;
12511;SDS011;6321;53.798;10.382;2022-07-10T05:41:44;16.00;;;3.00;;
12511;SDS011;6321;53.798;10.382;2022-07-10T05:44:09;10.27;;;3.30;;
12511;SDS011;6321;53.798;10.382;2022-07-10T05:46:35;12.20;;;2.63;;
12511;SDS011;6321;53.798;10.382;2022-07-10T05:49:00;7.00;;;2.67;;
12511;SDS011;6321;53.798;10.382;2022-07-10T05:51:26;13.00;;;3.37;;
12511;SDS011;6321;53.798;10.382;2022-07-10T05:53:51;10.80;;;2.83;;
12511;SDS011;6321;53.798;10.382;2022-07-10T05:56:17;15.57;;;3.27;;
12511;SDS011;6321;53.798;10.382;2022-07-10T05:58:43;11.30;;;2.80;;
12511;SDS011;6321;53.798;10.382;2022-07-10T06:01:08;11.30;;;2.80;;
12511;SDS011;6321;53.798;10.382;2022-07-10T06:03:33;9.60;;;3.13;;
12511;SDS011;6321;53.798;10.382;2022-07-10T06:06:00;11.57;;;3.13;;
12511;SDS011;6321;53.798;10.382;2022-07-10T06:08:25;7.33;;;2.60;;
12511;SDS011;6321;53.798;10.382;2022-07-10T06:10:51;10.47;;;3.03;;
12511;SDS011;6321;53.798;10.382;2022-07-10T06:13:16;14.97;;;3.40;;
12511;SDS011;6321;53.798;10.382;2022-07-10T06:15:42;9.17;;;2.83;;
12511;SDS011;6321;53.798;10.382;2022-07-10T06:18:09;8.20;;;2.53;;
12511;SDS011;6321;53.798;10.382;2022-07-10T06:20:36;11.37;;;2.47;;
12511;SDS011;6321;53.798;10.382;2022-07-10T06:23:02;7.73;;;2.43;;
12511;SDS011;6321;53.798;10.382;2022-07-10T06:25:29;10.17;;;2.77;;
12511;SDS011;6321;53.798;10.382;2022-07-10T06:27:56;10.90;;;2.83;;
12511;SDS011;6321;53.798;10.382;2022-07-10T06:30:23;10.17;;;2.60;;
12511;SDS011;6321;53.798;10.382;2022-07-10T06:32:50;9.63;;;3.40;;
12511;SDS011;6321;53.798;10.382;2022-07-10T06:35:17;7.63;;;2.27;;
12511;SDS011;6321;53.798;10.382;2022-07-10T06:37:45;14.43;;;3.00;;
12511;SDS011;6321;53.798;10.382;2022-07-10T06:40:13;8.67;;;2.50;;
12511;SDS011;6321;53.798;10.382;2022-07-10T06:42:39;10.93;;;2.37;;
12511;SDS011;6321;53.798;10.382;2022-07-10T06:45:05;10.17;;;3.00;;
12511;SDS011;6321;53.798;10.382;2022-07-10T06:47:31;9.97;;;2.93;;
12511;SDS011;6321;53.798;10.382;2022-07-10T06:50:15;6.80;;;2.40;;
12511;SDS011;6321;53.798;10.382;2022-07-10T06:52:41;11.40;;;3.10;;
12511;SDS011;6321;53.798;10.382;2022-07-10T06:55:07;7.97;;;2.80;;
12511;SDS011;6321;53.798;10.382;2022-07-10T06:57:33;9.67;;;2.67;;
12511;SDS011;6321;53.798;10.382;2022-07-10T06:59:58;10.00;;;2.77;;
12511;SDS011;6321;53.798;10.382;2022-07-10T07:02:24;11.17;;;3.20;;
12511;SDS011;6321;53.798;10.382;2022-07-10T07:04:50;6.03;;;2.93;;
12511;SDS011;6321;53.798;10.382;2022-07-10T07:07:15;7.87;;;2.43;;
12511;SDS011;6321;53.798;10.382;2022-07-10T07:09:41;10.37;;;2.67;;
12511;SDS011;6321;53.798;10.382;2022-07-10T07:12:08;14.27;;;3.07;;
12511;SDS011;6321;53.798;10.382;2022-07-10T07:14:34;11.37;;;2.57;;
12511;SDS011;6321;53.798;10.382;2022-07-10T07:16:59;9.77;;;2.70;;
12511;SDS011;6321;53.798;10.382;2022-07-10T07:19:29;9.67;;;2.90;;
12511;SDS011;6321;53.798;10.382;2022-07-10T07:22:21;9.57;;;3.13;;
12511;SDS011;6321;53.798;10.382;2022-07-10T07:25:06;10.47;;;2.80;;
12511;SDS011;6321;53.798;10.382;2022-07-10T07:27:33;10.77;;;2.10;;
12511;SDS011;6321;53.798;10.382;2022-07-10T07:30:03;12.63;;;2.77;;
12511;SDS011;6321;53.798;10.382;2022-07-10T07:32:31;6.40;;;2.63;;
12511;SDS011;6321;53.798;10.382;2022-07-10T07:34:56;12.73;;;2.70;;
12511;SDS011;6321;53.798;10.382;2022-07-10T07:37:22;15.17;;;3.13;;
12511;SDS011;6321;53.798;10.382;2022-07-10T07:39:48;9.73;;;2.57;;
12511;SDS011;6321;53.798;10.382;2022-07-10T07:42:14;9.50;;;2.90;;
12511;SDS011;6321;53.798;10.382;2022-07-10T07:44:40;11.40;;;2.73;;
12511;SDS011;6321;53.798;10.382;2022-07-10T07:47:05;12.87;;;3.30;;
12511;SDS011;6321;53.798;10.382;2022-07-10T07:49:31;12.43;;;2.50;;
12511;SDS011;6321;53.798;10.382;2022-07-10T07:51:56;9.70;;;2.53;;
12511;SDS011;6321;53.798;10.382;2022-07-10T07:54:22;9.93;;;2.50;;
12511;SDS011;6321;53.798;10.382;2022-07-10T07:56:47;11.57;;;2.93;;
12511;SDS011;6321;53.798;10.382;2022-07-10T07:59:13;10.57;;;3.10;;
12511;SDS011;6321;53.798;10.382;2022-07-10T08:01:38;10.30;;;2.47;;
12511;SDS011;6321;53.798;10.382;2022-07-10T08:04:04;7.63;;;2.33;;
12511;SDS011;6321;53.798;10.382;2022-07-10T08:06:30;10.77;;;3.00;;
12511;SDS011;6321;53.798;10.382;2022-07-10T08:08:55;9.57;;;2.47;;
12511;SDS011;6321;53.798;10.382;2022-07-10T08:11:21;8.80;;;2.30;;
12511;SDS011;6321;53.798;10.382;2022-07-10T08:13:47;7.57;;;2.80;;
12511;SDS011;6321;53.798;10.382;2022-07-10T08:16:13;12.93;;;2.53;;
12511;SDS011;6321;53.798;10.382;2022-07-10T08:18:38;7.43;;;2.13;;
12511;SDS011;6321;53.798;10.382;2022-07-10T08:21:04;10.03;;;2.83;;
12511;SDS011;6321;53.798;10.382;2022-07-10T08:23:30;9.90;;;2.73;;
12511;SDS011;6321;53.798;10.382;2022-07-10T08:25:55;7.63;;;1.83;;
12511;SDS011;6321;53.798;10.382;2022-07-10T08:28:21;9.33;;;2.33;;
12511;SDS011;6321;53.798;10.382;2022-07-10T08:30:46;9.33;;;2.23;;
12511;SDS011;6321;53.798;10.382;2022-07-10T08:33:12;13.27;;;3.33;;
12511;SDS011;6321;53.798;10.382;2022-07-10T08:35:37;7.07;;;2.53;;
12511;SDS011;6321;53.798;10.382;2022-07-10T08:38:03;7.13;;;2.40;;
12511;SDS011;6321;53.798;10.382;2022-07-10T08:40:35;5.90;;;1.90;;
12511;SDS011;6321;53.798;10.382;2022-07-10T08:43:04;11.50;;;2.13;;
12511;SDS011;6321;53.798;10.382;2022-07-10T08:45:31;8.00;;;2.60;;
12511;SDS011;6321;53.798;10.382;2022-07-10T08:48:01;6.63;;;1.77;;
12511;SDS011;6321;53.798;10.382;2022-07-10T08:50:30;5.87;;;2.50;;
12511;SDS011;6321;53.798;10.382;2022-07-10T08:53:09;10.53;;;2.60;;
12511;SDS011;6321;53.798;10.382;2022-07-10T08:55:38;6.37;;;2.23;;
12511;SDS011;6321;53.798;10.382;2022-07-10T08:58:04;7.30;;;2.03;;
12511;SDS011;6321;53.798;10.382;2022-07-10T09:00:32;7.37;;;2.23;;
12511;SDS011;6321;53.798;10.382;2022-07-10T09:02:58;10.10;;;2.20;;
12511;SDS011;6321;53.798;10.382;2022-07-10T09:05:24;10.33;;;2.60;;
12511;SDS011;6321;53.798;10.382;2022-07-10T09:07:50;9.77;;;2.17;;
12511;SDS011;6321;53.798;10.382;2022-07-10T09:10:18;8.10;;;1.90;;
12511;SDS011;6321;53.798;10.382;2022-07-10T09:15:21;9.77;;;2.00;;
12511;SDS011;6321;53.798;10.382;2022-07-10T09:23:18;8.70;;;2.07;;
12511;SDS011;6321;53.798;10.382;2022-07-10T09:25:48;5.83;;;2.27;;
12511;SDS011;6321;53.798;10.382;2022-07-10T09:28:22;10.60;;;2.60;;
12511;SDS011;6321;53.798;10.382;2022-07-10T09:30:48;6.07;;;2.33;;
12511;SDS011;6321;53.798;10.382;2022-07-10T09:33:18;8.30;;;2.10;;
12511;SDS011;6321;53.798;10.382;2022-07-10T09:36:32;5.80;;;1.70;;
12511;SDS011;6321;53.798;10.382;2022-07-10T09:41:19;8.43;;;2.37;;
12511;SDS011;6321;53.798;10.382;2022-07-10T09:43:51;7.33;;;2.23;;
12511;SDS011;6321;53.798;10.382;2022-07-10T09:46:22;6.77;;;2.10;;
12511;SDS011;6321;53.798;10.382;2022-07-10T09:49:11;8.80;;;2.27;;
12511;SDS011;6321;53.798;10.382;2022-07-10T09:51:46;9.63;;;2.03;;
12511;SDS011;6321;53.798;10.382;2022-07-10T09:54:12;11.00;;;2.90;;
12511;SDS011;6321;53.798;10.382;2022-07-10T09:56:42;11.30;;;2.50;;
12511;SDS011;6321;53.798;10.382;2022-07-10T09:59:10;4.87;;;1.87;;
12511;SDS011;6321;53.798;10.382;2022-07-10T10:01:43;7.10;;;1.93;;
12511;SDS011;6321;53.798;10.382;2022-07-10T10:04:10;7.33;;;1.97;;
12511;SDS011;6321;53.798;10.382;2022-07-10T10:06:37;5.90;;;2.20;;
12511;SDS011;6321;53.798;10.382;2022-07-10T10:09:24;7.07;;;2.40;;
12511;SDS011;6321;53.798;10.382;2022-07-10T10:11:58;5.00;;;2.10;;
12511;SDS011;6321;53.798;10.382;2022-07-10T10:14:28;7.33;;;2.40;;
12511;SDS011;6321;53.798;10.382;2022-07-10T10:16:54;5.37;;;2.17;;
12511;SDS011;6321;53.798;10.382;2022-07-10T10:19:21;6.17;;;1.83;;
12511;SDS011;6321;53.798;10.382;2022-07-10T10:22:07;3.67;;;1.77;;
12511;SDS011;6321;53.798;10.382;2022-07-10T10:24:33;4.67;;;1.50;;
12511;SDS011;6321;53.798;10.382;2022-07-10T10:26:59;5.37;;;2.17;;
12511;SDS011;6321;53.798;10.382;2022-07-10T10:29:26;6.00;;;1.80;;
12511;SDS011;6321;53.798;10.382;2022-07-10T10:31:52;7.37;;;1.90;;
12511;SDS011;6321;53.798;10.382;2022-07-10T10:34:37;10.07;;;2.67;;
12511;SDS011;6321;53.798;10.382;2022-07-10T10:37:07;5.43;;;2.07;;
12511;SDS011;6321;53.798;10.382;2022-07-10T10:39:55;6.50;;;1.70;;
12511;SDS011;6321;53.798;10.382;2022-07-10T10:47:57;8.70;;;2.30;;
12511;SDS011;6321;53.798;10.382;2022-07-10T10:50:37;9.73;;;3.13;;
12511;SDS011;6321;53.798;10.382;2022-07-10T10:53:04;7.40;;;2.10;;
12511;SDS011;6321;53.798;10.382;2022-07-10T10:55:37;8.20;;;1.80;;
12511;SDS011;6321;53.798;10.382;2022-07-10T10:58:13;6.30;;;1.80;;
12511;SDS011;6321;53.798;10.382;2022-07-10T11:00:40;5.07;;;2.03;;
12511;SDS011;6321;53.798;10.382;2022-07-10T11:03:16;5.30;;;2.17;;
12511;SDS011;6321;53.798;10.382;2022-07-10T11:05:47;6.57;;;2.00;;
12511;SDS011;6321;53.798;10.382;2022-07-10T11:08:13;7.77;;;2.03;;
12511;SDS011;6321;53.798;10.382;2022-07-10T11:10:59;8.23;;;2.23;;
12511;SDS011;6321;53.798;10.382;2022-07-10T11:13:24;6.93;;;2.27;;
12511;SDS011;6321;53.798;10.382;2022-07-10T11:15:54;6.47;;;1.73;;
12511;SDS011;6321;53.798;10.382;2022-07-10T11:18:20;5.67;;;2.37;;
12511;SDS011;6321;53.798;10.382;2022-07-10T11:20:50;4.07;;;1.67;;
12511;SDS011;6321;53.798;10.382;2022-07-10T11:26:24;7.60;;;2.27;;
12511;SDS011;6321;53.798;10.382;2022-07-10T11:29:17;6.20;;;1.80;;
12511;SDS011;6321;53.798;10.382;2022-07-10T11:31:43;4.27;;;1.90;;
12511;SDS011;6321;53.798;10.382;2022-07-10T11:34:18;8.13;;;1.97;;
12511;SDS011;6321;53.798;10.382;2022-07-10T11:36:43;6.20;;;1.87;;
12511;SDS011;6321;53.798;10.382;2022-07-10T11:39:09;3.93;;;1.97;;
12511;SDS011;6321;53.798;10.382;2022-07-10T11:41:42;9.53;;;2.60;;
12511;SDS011;6321;53.798;10.382;2022-07-10T11:44:13;7.33;;;2.10;;
12511;SDS011;6321;53.798;10.382;2022-07-10T11:46:41;5.83;;;2.07;;
12511;SDS011;6321;53.798;10.382;2022-07-10T11:49:09;6.63;;;2.10;;
12511;SDS011;6321;53.798;10.382;2022-07-10T11:51:36;5.93;;;2.13;;
12511;SDS011;6321;53.798;10.382;2022-07-10T11:54:05;8.93;;;2.20;;
12511;SDS011;6321;53.798;10.382;2022-07-10T11:56:32;7.60;;;2.23;;
12511;SDS011;6321;53.798;10.382;2022-07-10T11:59:01;5.70;;;2.57;;
12511;SDS011;6321;53.798;10.382;2022-07-10T12:01:32;6.30;;;1.90;;
12511;SDS011;6321;53.798;10.382;2022-07-10T12:04:02;7.80;;;2.50;;
12511;SDS011;6321;53.798;10.382;2022-07-10T12:06:32;7.43;;;2.33;;
12511;SDS011;6321;53.798;10.382;2022-07-10T12:09:06;9.20;;;2.40;;
12511;SDS011;6321;53.798;10.382;2022-07-10T12:11:34;6.27;;;2.00;;
12511;SDS011;6321;53.798;10.382;2022-07-10T12:16:39;7.53;;;1.93;;
12511;SDS011;6321;53.798;10.382;2022-07-10T12:19:07;9.67;;;2.07;;
12511;SDS011;6321;53.798;10.382;2022-07-10T12:21:33;8.20;;;2.37;;
12511;SDS011;6321;53.798;10.382;2022-07-10T12:24:00;6.60;;;2.20;;
12511;SDS011;6321;53.798;10.382;2022-07-10T12:26:34;6.63;;;1.60;;
12511;SDS011;6321;53.798;10.382;2022-07-10T12:29:03;8.77;;;2.00;;
12511;SDS011;6321;53.798;10.382;2022-07-10T12:31:30;9.30;;;2.47;;
12511;SDS011;6321;53.798;10.382;2022-07-10T12:33:58;8.33;;;2.67;;
12511;SDS011;6321;53.798;10.382;2022-07-10T12:36:47;10.50;;;2.80;;
12511;SDS011;6321;53.798;10.382;2022-07-10T12:39:15;5.80;;;1.90;;
12511;SDS011;6321;53.798;10.382;2022-07-10T12:44:32;5.90;;;2.10;;
12511;SDS011;6321;53.798;10.382;2022-07-10T12:47:04;6.17;;;2.00;;
12511;SDS011;6321;53.798;10.382;2022-07-10T12:52:28;7.33;;;2.20;;
12511;SDS011;6321;53.798;10.382;2022-07-10T12:57:54;7.90;;;2.57;;
12511;SDS011;6321;53.798;10.382;2022-07-10T13:00:24;3.40;;;1.50;;
12511;SDS011;6321;53.798;10.382;2022-07-10T13:02:56;5.47;;;2.23;;
12511;SDS011;6321;53.798;10.382;2022-07-10T13:05:29;5.63;;;1.87;;
12511;SDS011;6321;53.798;10.382;2022-07-10T13:08:18;6.70;;;1.97;;
12511;SDS011;6321;53.798;10.382;2022-07-10T13:10:49;6.30;;;2.60;;
12511;SDS011;6321;53.798;10.382;2022-07-10T13:13:23;7.10;;;1.60;;
12511;SDS011;6321;53.798;10.382;2022-07-10T13:15:49;7.23;;;2.27;;
12511;SDS011;6321;53.798;10.382;2022-07-10T13:18:19;6.93;;;1.70;;
12511;SDS011;6321;53.798;10.382;2022-07-10T13:20:47;5.17;;;1.70;;
12511;SDS011;6321;53.798;10.382;2022-07-10T13:23:14;6.40;;;2.10;;
12511;SDS011;6321;53.798;10.382;2022-07-10T13:25:40;7.40;;;2.00;;
12511;SDS011;6321;53.798;10.382;2022-07-10T13:28:07;8.80;;;2.07;;
12511;SDS011;6321;53.798;10.382;2022-07-10T13:30:34;6.60;;;2.27;;
12511;SDS011;6321;53.798;10.382;2022-07-10T13:32:59;5.47;;;1.97;;
12511;SDS011;6321;53.798;10.382;2022-07-10T13:35:31;7.17;;;1.90;;
12511;SDS011;6321;53.798;10.382;2022-07-10T13:37:58;5.13;;;1.77;;
12511;SDS011;6321;53.798;10.382;2022-07-10T13:40:26;7.83;;;2.20;;
12511;SDS011;6321;53.798;10.382;2022-07-10T13:42:52;4.83;;;1.80;;
12511;SDS011;6321;53.798;10.382;2022-07-10T13:45:18;6.73;;;1.90;;
12511;SDS011;6321;53.798;10.382;2022-07-10T13:47:44;5.77;;;2.20;;
12511;SDS011;6321;53.798;10.382;2022-07-10T13:50:10;6.67;;;2.33;;
12511;SDS011;6321;53.798;10.382;2022-07-10T13:52:35;5.60;;;1.90;;
12511;SDS011;6321;53.798;10.382;2022-07-10T13:55:01;6.30;;;2.30;;
12511;SDS011;6321;53.798;10.382;2022-07-10T13:57:29;5.67;;;2.10;;
12511;SDS011;6321;53.798;10.382;2022-07-10T13:59:55;6.37;;;2.20;;
12511;SDS011;6321;53.798;10.382;2022-07-10T14:02:20;3.83;;;1.80;;
12511;SDS011;6321;53.798;10.382;2022-07-10T14:04:46;6.00;;;2.13;;
12511;SDS011;6321;53.798;10.382;2022-07-10T14:07:12;6.53;;;1.60;;
12511;SDS011;6321;53.798;10.382;2022-07-10T14:09:37;5.90;;;1.90;;
12511;SDS011;6321;53.798;10.382;2022-07-10T14:12:03;4.83;;;2.33;;
12511;SDS011;6321;53.798;10.382;2022-07-10T14:14:29;7.67;;;2.17;;
12511;SDS011;6321;53.798;10.382;2022-07-10T14:16:54;5.77;;;1.80;;
12511;SDS011;6321;53.798;10.382;2022-07-10T14:19:20;7.40;;;2.10;;
12511;SDS011;6321;53.798;10.382;2022-07-10T14:21:45;4.53;;;2.07;;
12511;SDS011;6321;53.798;10.382;2022-07-10T14:24:11;7.93;;;2.37;;
12511;SDS011;6321;53.798;10.382;2022-07-10T14:26:37;5.03;;;1.77;;
12511;SDS011;6321;53.798;10.382;2022-07-10T14:29:03;7.67;;;2.47;;
12511;SDS011;6321;53.798;10.382;2022-07-10T14:31:29;5.30;;;2.03;;
12511;SDS011;6321;53.798;10.382;2022-07-10T14:33:54;6.43;;;2.00;;
12511;SDS011;6321;53.798;10.382;2022-07-10T14:36:20;7.27;;;2.00;;
12511;SDS011;6321;53.798;10.382;2022-07-10T14:38:47;5.93;;;2.07;;
12511;SDS011;6321;53.798;10.382;2022-07-10T14:41:13;5.43;;;1.80;;
12511;SDS011;6321;53.798;10.382;2022-07-10T14:43:39;3.73;;;1.80;;
12511;SDS011;6321;53.798;10.382;2022-07-10T14:46:04;5.73;;;1.80;;
12511;SDS011;6321;53.798;10.382;2022-07-10T14:48:31;5.20;;;1.90;;
12511;SDS011;6321;53.798;10.382;2022-07-10T14:50:57;3.57;;;1.80;;
12511;SDS011;6321;53.798;10.382;2022-07-10T14:53:22;7.03;;;2.00;;
12511;SDS011;6321;53.798;10.382;2022-07-10T14:55:48;6.37;;;2.20;;
12511;SDS011;6321;53.798;10.382;2022-07-10T14:58:14;5.87;;;2.00;;
12511;SDS011;6321;53.798;10.382;2022-07-10T15:00:40;4.33;;;1.63;;
12511;SDS011;6321;53.798;10.382;2022-07-10T15:03:05;4.47;;;1.73;;
12511;SDS011;6321;53.798;10.382;2022-07-10T15:05:32;3.77;;;1.97;;
12511;SDS011;6321;53.798;10.382;2022-07-10T15:07:58;7.47;;;1.97;;
12511;SDS011;6321;53.798;10.382;2022-07-10T15:10:25;3.23;;;2.00;;
12511;SDS011;6321;53.798;10.382;2022-07-10T15:12:50;4.27;;;1.67;;
12511;SDS011;6321;53.798;10.382;2022-07-10T15:15:16;4.73;;;1.60;;
12511;SDS011;6321;53.798;10.382;2022-07-10T15:17:42;4.50;;;1.87;;
12511;SDS011;6321;53.798;10.382;2022-07-10T15:20:09;4.93;;;1.93;;